createdAt,value
2018-06-23T00:00:07.183Z,77.78
2018-06-23T00:01:07.135Z,77.78
2018-06-23T00:02:07.059Z,75.85
2018-06-23T00:03:07.011Z,77.98
2018-06-23T00:04:06.942Z,77.69
2018-06-23T00:05:06.887Z,77.69
2018-06-23T00:06:06.821Z,77.40
2018-06-23T00:07:06.740Z,77.50
2018-06-23T00:08:06.691Z,78.27
2018-06-23T00:09:06.616Z,77.26
2018-06-23T00:10:06.558Z,77.78
2018-06-23T00:11:06.504Z,77.65
2018-06-23T00:12:06.445Z,78.23
2018-06-23T00:13:06.380Z,78.42
2018-06-23T00:14:06.320Z,78.03
2018-06-23T00:15:06.252Z,78.23
2018-06-23T00:16:06.183Z,77.75
2018-06-23T00:17:06.122Z,77.98
2018-06-23T00:18:06.063Z,77.88
2018-06-23T00:19:06.004Z,77.98
2018-06-23T00:20:05.938Z,78.03
2018-06-23T00:21:05.872Z,77.84
2018-06-23T00:22:05.800Z,78.23
2018-06-23T00:23:05.732Z,77.94
2018-06-23T00:24:05.692Z,78.52
2018-06-23T00:25:05.624Z,78.33
2018-06-23T00:26:05.562Z,77.45
2018-06-23T00:27:05.485Z,77.75
2018-06-23T00:28:05.418Z,77.84
2018-06-23T00:29:05.367Z,78.38
2018-06-23T00:30:05.303Z,77.90
2018-06-23T00:31:05.238Z,78.00
2018-06-23T00:32:05.166Z,78.13
2018-06-23T00:33:05.115Z,77.94
2018-06-23T00:34:05.040Z,78.03
2018-06-23T00:35:05.005Z,78.71
2018-06-23T00:36:04.912Z,77.65
2018-06-23T00:37:04.853Z,78.03
2018-06-23T00:38:04.796Z,77.45
2018-06-23T00:39:04.741Z,77.75
2018-06-23T00:40:04.669Z,78.03
2018-06-23T00:41:04.608Z,77.42
2018-06-23T00:42:04.549Z,77.71
2018-06-23T00:43:04.495Z,77.75
2018-06-23T00:44:04.418Z,78.00
2018-06-23T00:45:04.349Z,77.84
2018-06-23T00:46:04.285Z,77.94
2018-06-23T00:47:04.223Z,78.03
2018-06-23T00:48:04.158Z,77.36
2018-06-23T00:49:04.093Z,76.97
2018-06-23T00:50:04.039Z,77.13
2018-06-23T00:51:03.983Z,77.71
2018-06-23T00:52:03.911Z,77.94
2018-06-23T00:53:03.852Z,77.75
2018-06-23T00:54:03.789Z,76.20
2018-06-23T00:55:03.716Z,76.97
2018-06-23T00:56:03.663Z,76.59
2018-06-23T00:57:03.594Z,77.13
2018-06-23T00:58:03.532Z,78.29
2018-06-23T00:59:03.474Z,77.51
2018-06-23T01:00:03.421Z,77.90
2018-06-23T01:01:03.330Z,78.00
2018-06-23T01:02:03.288Z,77.51
2018-06-23T01:03:03.218Z,78.58
2018-06-23T01:04:03.160Z,77.90
2018-06-23T01:05:03.094Z,78.09
2018-06-23T01:06:03.035Z,77.90
2018-06-23T01:07:02.959Z,78.29
2018-06-23T01:08:02.905Z,77.42
2018-06-23T01:09:02.835Z,78.19
2018-06-23T01:10:02.778Z,77.13
2018-06-23T01:11:02.712Z,76.93
2018-06-23T01:12:02.651Z,77.61
2018-06-23T01:13:02.595Z,76.55
2018-06-23T01:14:02.525Z,76.55
2018-06-23T01:15:02.465Z,77.22
2018-06-23T01:16:02.394Z,76.74
2018-06-23T01:17:02.340Z,76.70
2018-06-23T01:18:02.256Z,77.67
2018-06-23T01:19:02.207Z,77.28
2018-06-23T01:20:02.132Z,77.76
2018-06-23T01:21:02.085Z,77.76
2018-06-23T01:22:02.014Z,77.96
2018-06-23T01:23:01.948Z,77.76
2018-06-23T01:24:01.895Z,77.76
2018-06-23T01:25:01.821Z,77.76
2018-06-23T01:26:01.760Z,77.96
2018-06-23T01:27:01.704Z,77.76
2018-06-23T01:28:01.650Z,77.48
2018-06-23T01:29:01.574Z,77.86
2018-06-23T01:30:01.515Z,78.54
2018-06-23T01:31:01.459Z,78.06
2018-06-23T01:32:01.388Z,77.76
2018-06-23T01:33:01.317Z,77.67
2018-06-23T01:34:01.287Z,77.57
2018-06-23T01:35:01.195Z,77.76
2018-06-23T01:36:01.128Z,76.61
2018-06-23T01:37:01.071Z,77.86
2018-06-23T01:38:01.005Z,76.80
2018-06-23T01:39:00.944Z,75.87
2018-06-23T01:40:00.884Z,76.22
2018-06-23T01:41:00.810Z,75.84
2018-06-23T01:42:00.759Z,76.42
2018-06-23T01:43:00.689Z,75.74
2018-06-23T01:44:00.616Z,75.84
2018-06-23T01:45:00.559Z,76.22
2018-06-23T01:46:00.494Z,76.90
2018-06-23T01:47:00.435Z,76.61
2018-06-23T01:48:00.375Z,78.25
2018-06-23T01:49:00.302Z,77.67
2018-06-23T01:50:00.249Z,77.86
2018-06-23T01:51:00.181Z,77.96
2018-06-23T01:52:00.122Z,78.44
2018-06-23T01:53:00.048Z,77.19
2018-06-23T01:53:59.976Z,77.86
2018-06-23T01:54:59.913Z,77.48
2018-06-23T01:55:59.852Z,77.76
2018-06-23T01:56:59.800Z,77.96
2018-06-23T01:57:59.732Z,77.53
2018-06-23T01:58:59.664Z,78.34
2018-06-23T01:59:59.609Z,77.48
2018-06-23T02:00:59.546Z,78.25
2018-06-23T02:01:59.469Z,77.57
2018-06-23T02:02:59.422Z,78.34
2018-06-23T02:03:59.356Z,78.34
2018-06-23T02:04:59.282Z,77.86
2018-06-23T02:05:59.228Z,78.06
2018-06-23T02:06:59.164Z,78.15
2018-06-23T02:07:59.097Z,78.34
2018-06-23T02:08:59.026Z,77.76
2018-06-23T02:09:58.972Z,78.15
2018-06-23T02:10:58.902Z,77.76
2018-06-23T02:11:58.850Z,78.25
2018-06-23T02:12:58.786Z,77.76
2018-06-23T02:13:58.725Z,78.54
2018-06-23T02:14:58.645Z,78.06
2018-06-23T02:15:58.584Z,78.34
2018-06-23T02:16:58.513Z,77.57
2018-06-23T02:17:58.463Z,77.03
2018-06-23T02:18:58.399Z,76.61
2018-06-23T02:19:58.325Z,77.22
2018-06-23T02:20:58.270Z,75.35
2018-06-23T02:21:58.202Z,75.97
2018-06-23T02:22:58.146Z,75.93
2018-06-23T02:23:58.080Z,77.09
2018-06-23T02:24:58.026Z,76.51
2018-06-23T02:25:57.962Z,76.80
2018-06-23T02:26:57.903Z,77.86
2018-06-23T02:27:57.828Z,77.67
2018-06-23T02:28:57.766Z,77.76
2018-06-23T02:29:57.707Z,77.09
2018-06-23T02:30:57.645Z,78.25
2018-06-23T02:31:57.586Z,77.76
2018-06-23T02:32:57.512Z,77.96
2018-06-23T02:33:57.449Z,78.54
2018-06-23T02:34:57.391Z,78.06
2018-06-23T02:35:57.317Z,78.15
2018-06-23T02:36:57.256Z,77.42
2018-06-23T02:37:57.238Z,77.61
2018-06-23T02:38:57.132Z,76.61
2018-06-23T02:39:57.076Z,77.28
2018-06-23T02:40:57.003Z,77.57
2018-06-23T02:41:56.935Z,76.84
2018-06-23T02:42:56.897Z,77.19
2018-06-23T02:43:56.812Z,76.42
2018-06-23T02:44:56.755Z,77.67
2018-06-23T02:45:56.693Z,78.54
2018-06-23T02:46:56.618Z,77.67
2018-06-23T02:47:56.571Z,77.76
2018-06-23T02:48:56.495Z,77.67
2018-06-23T02:49:56.449Z,78.34
2018-06-23T02:50:56.368Z,79.12
2018-06-23T02:51:56.313Z,78.34
2018-06-23T02:52:56.247Z,77.86
2018-06-23T02:53:56.174Z,78.34
2018-06-23T02:54:56.111Z,78.06
2018-06-23T02:55:56.050Z,78.44
2018-06-23T02:56:55.987Z,78.79
2018-06-23T02:57:55.924Z,79.37
2018-06-23T02:58:55.878Z,78.79
2018-06-23T02:59:55.810Z,78.54
2018-06-23T03:00:55.738Z,78.99
2018-06-23T03:01:55.665Z,78.54
2018-06-23T03:02:55.613Z,78.44
2018-06-23T03:03:55.556Z,77.76
2018-06-23T03:04:55.480Z,79.02
2018-06-23T03:05:55.420Z,78.41
2018-06-23T03:06:55.356Z,78.15
2018-06-23T03:07:55.305Z,78.73
2018-06-23T03:08:55.224Z,79.12
2018-06-23T03:09:55.170Z,78.25
2018-06-23T03:10:55.110Z,78.34
2018-06-23T03:11:55.040Z,78.06
2018-06-23T03:12:54.975Z,77.57
2018-06-23T03:13:54.923Z,77.19
2018-06-23T03:14:54.842Z,77.96
2018-06-23T03:15:54.795Z,77.09
2018-06-23T03:16:54.722Z,78.83
2018-06-23T03:17:54.662Z,78.44
2018-06-23T03:18:54.603Z,78.34
2018-06-23T03:19:54.543Z,77.96
2018-06-23T03:20:54.475Z,76.61
2018-06-23T03:21:54.399Z,77.09
2018-06-23T03:22:54.357Z,79.02
2018-06-23T03:23:54.277Z,79.02
2018-06-23T03:24:54.214Z,78.06
2018-06-23T03:25:54.167Z,77.19
2018-06-23T03:26:54.084Z,77.86
2018-06-23T03:27:54.037Z,78.34
2018-06-23T03:28:53.956Z,78.44
2018-06-23T03:29:53.902Z,77.96
2018-06-23T03:30:53.842Z,78.15
2018-06-23T03:31:53.785Z,78.06
2018-06-23T03:32:53.700Z,78.06
2018-06-23T03:33:53.688Z,78.59
2018-06-23T03:34:53.579Z,78.25
2018-06-23T03:35:53.526Z,79.22
2018-06-23T03:36:53.723Z,78.31
2018-06-23T03:37:53.386Z,78.54
2018-06-23T03:38:53.355Z,78.06
2018-06-23T03:39:53.265Z,78.54
2018-06-23T03:40:53.202Z,78.54
2018-06-23T03:41:53.132Z,78.83
2018-06-23T03:42:53.196Z,79.31
2018-06-23T03:43:53.058Z,78.83
2018-06-23T03:44:53.261Z,77.86
2018-06-23T03:45:52.887Z,78.25
2018-06-23T03:46:52.828Z,78.25
2018-06-23T03:47:52.761Z,77.71
2018-06-23T03:48:52.701Z,77.67
2018-06-23T03:49:52.646Z,78.64
2018-06-23T03:50:52.564Z,79.02
2018-06-23T03:51:52.514Z,77.86
2018-06-23T03:52:52.442Z,77.57
2018-06-23T03:53:52.380Z,78.06
2018-06-23T03:54:52.321Z,78.15
2018-06-23T03:55:52.248Z,77.48
2018-06-23T03:56:52.207Z,77.44
2018-06-23T03:57:52.130Z,78.99
2018-06-23T03:58:52.064Z,78.79
2018-06-23T03:59:52.016Z,79.17
2018-06-23T04:00:51.936Z,79.17
2018-06-23T04:01:51.876Z,79.37
2018-06-23T04:02:51.819Z,79.47
2018-06-23T04:03:51.754Z,80.05
2018-06-23T04:04:51.681Z,78.69
2018-06-23T04:05:51.624Z,78.79
2018-06-23T04:06:51.565Z,79.37
2018-06-23T04:07:51.492Z,79.56
2018-06-23T04:08:51.441Z,78.89
2018-06-23T04:09:51.362Z,79.60
2018-06-23T04:10:51.311Z,78.34
2018-06-23T04:11:51.234Z,78.31
2018-06-23T04:12:51.185Z,78.21
2018-06-23T04:13:51.114Z,79.27
2018-06-23T04:14:51.053Z,79.47
2018-06-23T04:15:50.991Z,78.02
2018-06-23T04:16:50.952Z,79.08
2018-06-23T04:17:50.849Z,79.27
2018-06-23T04:18:50.799Z,79.75
2018-06-23T04:19:50.728Z,79.37
2018-06-23T04:20:50.664Z,79.75
2018-06-23T04:21:50.606Z,79.37
2018-06-23T04:22:50.540Z,80.14
2018-06-23T04:23:50.475Z,79.17
2018-06-23T04:24:50.416Z,79.17
2018-06-23T04:25:50.345Z,79.08
2018-06-23T04:26:50.281Z,78.11
2018-06-23T04:27:50.227Z,78.79
2018-06-23T04:28:50.155Z,79.08
2018-06-23T04:29:50.104Z,78.79
2018-06-23T04:30:50.021Z,79.08
2018-06-23T04:31:49.957Z,78.69
2018-06-23T04:32:49.903Z,79.12
2018-06-23T04:33:49.838Z,78.06
2018-06-23T04:34:49.782Z,78.44
2018-06-23T04:35:49.707Z,78.44
2018-06-23T04:36:49.663Z,77.00
2018-06-23T04:37:49.593Z,77.48
2018-06-23T04:38:49.522Z,75.74
2018-06-23T04:39:49.467Z,76.32
2018-06-23T04:40:49.417Z,76.57
2018-06-23T04:41:49.344Z,78.31
2018-06-23T04:42:49.280Z,79.27
2018-06-23T04:43:49.211Z,77.92
2018-06-23T04:44:49.142Z,78.21
2018-06-23T04:45:49.075Z,79.08
2018-06-23T04:46:49.011Z,79.56
2018-06-23T04:47:48.949Z,78.69
2018-06-23T04:48:48.904Z,78.92
2018-06-23T04:49:48.829Z,77.15
2018-06-23T04:50:48.760Z,77.00
2018-06-23T04:51:48.696Z,77.83
2018-06-23T04:52:48.645Z,76.95
2018-06-23T04:53:48.574Z,78.11
2018-06-23T04:54:48.530Z,79.08
2018-06-23T04:55:48.452Z,77.92
2018-06-23T04:56:48.388Z,78.21
2018-06-23T04:57:48.320Z,78.99
2018-06-23T04:58:48.262Z,77.63
2018-06-23T04:59:48.213Z,78.21
2018-06-23T05:00:48.144Z,78.31
2018-06-23T05:01:48.075Z,77.38
2018-06-23T05:02:48.004Z,77.67
2018-06-23T05:03:47.938Z,77.19
2018-06-23T05:04:47.876Z,76.09
2018-06-23T05:05:47.825Z,78.50
2018-06-23T05:06:47.741Z,77.05
2018-06-23T05:07:47.690Z,79.17
2018-06-23T05:08:47.628Z,78.11
2018-06-23T05:09:47.561Z,76.37
2018-06-23T05:10:47.499Z,78.50
2018-06-23T05:11:47.432Z,78.89
2018-06-23T05:12:47.370Z,77.63
2018-06-23T05:13:47.313Z,77.15
2018-06-23T05:14:47.270Z,77.63
2018-06-23T05:15:47.184Z,77.83
2018-06-23T05:16:47.114Z,78.02
2018-06-23T05:17:47.053Z,77.73
2018-06-23T05:18:46.999Z,76.32
2018-06-23T05:19:46.929Z,78.25
2018-06-23T05:20:46.890Z,76.90
2018-06-23T05:21:46.808Z,75.45
2018-06-23T05:22:46.746Z,75.51
2018-06-23T05:23:46.676Z,78.06
2018-06-23T05:24:46.599Z,76.12
2018-06-23T05:25:46.559Z,76.90
2018-06-23T05:26:46.528Z,76.51
2018-06-23T05:27:46.411Z,75.12
2018-06-23T05:28:46.358Z,76.57
2018-06-23T05:29:46.297Z,77.09
2018-06-23T05:30:46.236Z,76.80
2018-06-23T05:31:46.166Z,74.96
2018-06-23T05:32:46.104Z,75.64
2018-06-23T05:33:46.040Z,76.32
2018-06-23T05:34:45.979Z,74.29
2018-06-23T05:35:45.921Z,73.71
2018-06-23T05:36:45.856Z,73.94
2018-06-23T05:37:45.804Z,73.13
2018-06-23T05:38:45.729Z,74.87
2018-06-23T05:39:45.690Z,74.10
2018-06-23T05:40:45.601Z,75.06
2018-06-23T05:41:45.531Z,73.84
2018-06-23T05:42:45.484Z,74.19
2018-06-23T05:43:45.406Z,74.04
2018-06-23T05:44:45.355Z,73.36
2018-06-23T05:45:45.282Z,71.33
2018-06-23T05:46:45.236Z,72.58
2018-06-23T05:47:45.150Z,70.75
2018-06-23T05:48:45.107Z,71.14
2018-06-23T05:49:45.042Z,71.23
2018-06-23T05:50:44.981Z,72.00
2018-06-23T05:51:44.906Z,71.72
2018-06-23T05:52:44.841Z,71.17
2018-06-23T05:53:44.776Z,70.10
2018-06-23T05:54:44.718Z,71.17
2018-06-23T05:55:44.666Z,70.68
2018-06-23T05:56:44.604Z,69.98
2018-06-23T05:57:44.537Z,70.65
2018-06-23T05:58:44.475Z,70.94
2018-06-23T05:59:44.404Z,71.33
2018-06-23T06:00:44.412Z,71.91
2018-06-23T06:01:44.296Z,70.84
2018-06-23T06:02:44.236Z,71.42
2018-06-23T06:03:44.156Z,71.04
2018-06-23T06:04:44.092Z,70.26
2018-06-23T06:05:44.055Z,70.65
2018-06-23T06:06:43.967Z,70.36
2018-06-23T06:07:43.914Z,70.17
2018-06-23T06:08:43.852Z,71.33
2018-06-23T06:09:43.831Z,71.68
2018-06-23T06:10:43.722Z,73.32
2018-06-23T06:11:43.687Z,73.32
2018-06-23T06:12:43.604Z,72.97
2018-06-23T06:13:43.533Z,71.91
2018-06-23T06:14:43.465Z,71.04
2018-06-23T06:15:43.449Z,70.75
2018-06-23T06:16:43.353Z,71.04
2018-06-23T06:17:43.288Z,70.78
2018-06-23T06:18:43.222Z,71.08
2018-06-23T06:19:43.159Z,68.66
2018-06-23T06:20:43.100Z,70.01
2018-06-23T06:21:43.038Z,68.66
2018-06-23T06:22:42.988Z,69.56
2018-06-23T06:23:42.951Z,68.01
2018-06-23T06:24:42.858Z,66.95
2018-06-23T06:25:42.797Z,67.82
2018-06-23T06:26:42.736Z,68.30
2018-06-23T06:27:42.663Z,67.72
2018-06-23T06:28:42.611Z,66.27
2018-06-23T06:29:42.542Z,67.72
2018-06-23T06:30:42.491Z,68.49
2018-06-23T06:31:42.423Z,66.66
2018-06-23T06:32:42.372Z,65.85
2018-06-23T06:33:42.303Z,67.14
2018-06-23T06:34:42.234Z,67.05
2018-06-23T06:35:42.240Z,68.01
2018-06-23T06:36:42.168Z,65.79
2018-06-23T06:37:42.059Z,66.17
2018-06-23T06:38:41.982Z,66.95
2018-06-23T06:39:41.948Z,65.69
2018-06-23T06:40:41.869Z,65.30
2018-06-23T06:41:41.817Z,66.27
2018-06-23T06:42:41.755Z,65.05
2018-06-23T06:43:41.676Z,63.49
2018-06-23T06:44:41.763Z,63.95
2018-06-23T06:45:41.562Z,65.01
2018-06-23T06:46:41.505Z,64.04
2018-06-23T06:47:41.442Z,66.11
2018-06-23T06:48:41.382Z,64.47
2018-06-23T06:49:41.306Z,63.59
2018-06-23T06:50:41.265Z,63.40
2018-06-23T06:51:41.201Z,63.11
2018-06-23T06:52:41.138Z,63.40
2018-06-23T06:53:41.065Z,62.92
2018-06-23T06:54:41.020Z,64.37
2018-06-23T06:55:40.957Z,63.79
2018-06-23T06:56:40.891Z,63.01
2018-06-23T06:57:40.826Z,62.82
2018-06-23T06:58:40.776Z,62.63
2018-06-23T06:59:40.713Z,62.14
2018-06-23T07:00:40.644Z,61.85
2018-06-23T07:01:40.589Z,62.82
2018-06-23T07:02:40.537Z,63.89
2018-06-23T07:03:40.457Z,64.47
2018-06-23T07:04:40.411Z,63.49
2018-06-23T07:05:40.340Z,63.14
2018-06-23T07:06:40.291Z,63.14
2018-06-23T07:07:40.223Z,62.66
2018-06-23T07:08:40.154Z,61.49
2018-06-23T07:09:40.100Z,61.88
2018-06-23T07:10:40.032Z,61.59
2018-06-23T07:11:39.976Z,61.98
2018-06-23T07:12:39.906Z,62.27
2018-06-23T07:13:39.859Z,62.56
2018-06-23T07:14:39.781Z,62.46
2018-06-23T07:15:39.755Z,62.27
2018-06-23T07:16:39.672Z,62.56
2018-06-23T07:17:39.642Z,61.59
2018-06-23T07:18:39.554Z,61.98
2018-06-23T07:19:39.489Z,62.95
2018-06-23T07:20:39.437Z,62.20
2018-06-23T07:21:39.361Z,62.07
2018-06-23T07:22:39.306Z,60.85
2018-06-23T07:23:39.298Z,61.33
2018-06-23T07:24:39.173Z,61.52
2018-06-23T07:25:39.141Z,61.24
2018-06-23T07:26:39.058Z,60.46
2018-06-23T07:27:38.995Z,60.75
2018-06-23T07:28:38.948Z,61.24
2018-06-23T07:29:38.881Z,60.65
2018-06-23T07:30:38.836Z,61.43
2018-06-23T07:31:38.756Z,61.24
2018-06-23T07:32:38.695Z,60.65
2018-06-23T07:33:38.631Z,61.36
2018-06-23T07:34:38.663Z,60.10
2018-06-23T07:35:38.515Z,60.20
2018-06-23T07:36:38.463Z,60.39
2018-06-23T07:37:38.401Z,60.58
2018-06-23T07:38:38.327Z,60.10
2018-06-23T07:39:38.280Z,60.58
2018-06-23T07:40:38.239Z,60.39
2018-06-23T07:41:38.159Z,60.58
2018-06-23T07:42:38.109Z,61.65
2018-06-23T07:43:38.041Z,60.30
2018-06-23T07:44:37.986Z,59.91
2018-06-23T07:45:37.922Z,60.46
2018-06-23T07:46:37.926Z,60.17
2018-06-23T07:47:37.807Z,59.88
2018-06-23T07:48:37.746Z,59.97
2018-06-23T07:49:37.667Z,60.55
2018-06-23T07:50:37.630Z,60.65
2018-06-23T07:51:37.564Z,61.62
2018-06-23T07:52:37.505Z,60.85
2018-06-23T07:53:37.443Z,61.43
2018-06-23T07:54:37.371Z,61.17
2018-06-23T07:55:37.328Z,61.07
2018-06-23T07:56:37.263Z,60.68
2018-06-23T07:57:37.211Z,60.20
2018-06-23T07:58:37.143Z,60.97
2018-06-23T07:59:37.072Z,60.00
2018-06-23T08:00:37.025Z,59.64
2018-06-23T08:01:36.983Z,59.26
2018-06-23T08:02:36.904Z,59.52
2018-06-23T08:03:36.835Z,59.23
2018-06-23T08:04:36.784Z,59.42
2018-06-23T08:05:36.713Z,60.10
2018-06-23T08:06:36.657Z,59.71
2018-06-23T08:07:36.605Z,59.81
2018-06-23T08:08:36.527Z,59.81
2018-06-23T08:09:36.470Z,59.74
2018-06-23T08:10:36.411Z,59.36
2018-06-23T08:11:36.380Z,58.48
2018-06-23T08:12:36.295Z,58.39
2018-06-23T08:13:36.231Z,58.29
2018-06-23T08:14:36.186Z,58.39
2018-06-23T08:15:36.122Z,58.67
2018-06-23T08:16:36.059Z,58.77
2018-06-23T08:17:36.003Z,59.16
2018-06-23T08:18:35.974Z,58.48
2018-06-23T08:19:35.884Z,57.70
2018-06-23T08:20:35.831Z,58.29
2018-06-23T08:21:35.761Z,58.48
2018-06-23T08:22:35.710Z,58.48
2018-06-23T08:23:35.638Z,58.09
2018-06-23T08:24:35.588Z,57.80
2018-06-23T08:25:35.530Z,58.55
2018-06-23T08:26:35.550Z,59.33
2018-06-23T08:27:35.412Z,58.94
2018-06-23T08:28:35.346Z,59.42
2018-06-23T08:29:35.279Z,60.49
2018-06-23T08:30:35.216Z,61.17
2018-06-23T08:31:35.159Z,60.49
2018-06-23T08:32:35.112Z,60.10
2018-06-23T08:33:35.046Z,59.42
2018-06-23T08:34:34.985Z,60.39
2018-06-23T08:35:34.927Z,60.10
2018-06-23T08:36:34.861Z,59.81
2018-06-23T08:37:34.801Z,60.20
2018-06-23T08:38:34.748Z,60.39
2018-06-23T08:39:34.699Z,60.39
2018-06-23T08:40:34.626Z,59.13
2018-06-23T08:41:34.561Z,60.39
2018-06-23T08:42:34.503Z,59.64
2018-06-23T08:43:34.476Z,59.64
2018-06-23T08:44:34.387Z,59.55
2018-06-23T08:45:34.328Z,59.55
2018-06-23T08:46:34.268Z,59.28
2018-06-23T08:47:34.208Z,58.80
2018-06-23T08:48:34.137Z,59.67
2018-06-23T08:49:34.079Z,58.58
2018-06-23T08:50:34.032Z,59.45
2018-06-23T08:51:33.971Z,58.80
2018-06-23T08:52:33.918Z,59.38
2018-06-23T08:53:33.840Z,59.00
2018-06-23T08:54:33.800Z,58.90
2018-06-23T08:55:33.725Z,59.48
2018-06-23T08:56:33.672Z,59.09
2018-06-23T08:57:33.609Z,58.70
2018-06-23T08:58:33.537Z,58.61
2018-06-23T08:59:33.505Z,59.48
2018-06-23T09:00:33.429Z,58.64
2018-06-23T09:01:33.378Z,58.64
2018-06-23T09:02:33.313Z,58.44
2018-06-23T09:03:33.264Z,58.05
2018-06-23T09:04:33.183Z,58.44
2018-06-23T09:05:33.148Z,58.34
2018-06-23T09:06:33.070Z,58.73
2018-06-23T09:07:33.006Z,58.34
2018-06-23T09:08:32.960Z,58.44
2018-06-23T09:09:32.910Z,58.64
2018-06-23T09:10:32.837Z,58.44
2018-06-23T09:11:32.774Z,58.47
2018-06-23T09:12:32.711Z,58.57
2018-06-23T09:13:32.678Z,58.08
2018-06-23T09:14:32.665Z,58.57
2018-06-23T09:15:32.536Z,58.47
2018-06-23T09:16:32.475Z,58.47
2018-06-23T09:17:32.423Z,58.57
2018-06-23T09:18:32.365Z,58.37
2018-06-23T09:19:32.371Z,59.15
2018-06-23T09:20:32.249Z,58.47
2018-06-23T09:21:32.195Z,59.25
2018-06-23T09:22:32.133Z,58.76
2018-06-23T09:23:32.080Z,58.57
2018-06-23T09:24:32.006Z,58.37
2018-06-23T09:25:31.973Z,58.95
2018-06-23T09:26:31.889Z,59.44
2018-06-23T09:27:31.835Z,59.54
2018-06-23T09:28:31.779Z,59.64
2018-06-23T09:29:31.717Z,59.44
2018-06-23T09:30:31.670Z,59.15
2018-06-23T09:31:31.590Z,59.34
2018-06-23T09:32:31.543Z,59.64
2018-06-23T09:33:31.489Z,58.95
2018-06-23T09:34:31.478Z,59.83
2018-06-23T09:35:31.371Z,60.05
2018-06-23T09:36:31.310Z,59.54
2018-06-23T09:37:31.248Z,59.34
2018-06-23T09:38:31.202Z,59.64
2018-06-23T09:39:31.127Z,59.38
2018-06-23T09:40:31.079Z,59.54
2018-06-23T09:41:31.021Z,59.95
2018-06-23T09:42:30.969Z,59.76
2018-06-23T09:43:30.896Z,59.76
2018-06-23T09:44:30.849Z,59.47
2018-06-23T09:45:30.776Z,59.47
2018-06-23T09:46:30.741Z,59.76
2018-06-23T09:47:30.667Z,59.38
2018-06-23T09:48:30.618Z,59.76
2018-06-23T09:49:30.539Z,59.86
2018-06-23T09:50:30.481Z,60.54
2018-06-23T09:51:30.438Z,60.25
2018-06-23T09:52:30.398Z,60.35
2018-06-23T09:53:30.318Z,60.15
2018-06-23T09:54:30.257Z,60.35
2018-06-23T09:55:30.188Z,60.64
2018-06-23T09:56:30.134Z,60.54
2018-06-23T09:57:30.081Z,60.15
2018-06-23T09:58:30.019Z,60.54
2018-06-23T09:59:29.961Z,61.12
2018-06-23T10:00:29.908Z,60.93
2018-06-23T10:01:29.854Z,60.74
2018-06-23T10:02:29.781Z,61.19
2018-06-23T10:03:29.753Z,61.38
2018-06-23T10:04:29.657Z,61.97
2018-06-23T10:05:29.613Z,61.68
2018-06-23T10:06:29.539Z,62.16
2018-06-23T10:07:29.499Z,61.48
2018-06-23T10:08:29.496Z,62.68
2018-06-23T10:09:29.371Z,61.51
2018-06-23T10:10:29.329Z,61.32
2018-06-23T10:11:29.257Z,61.90
2018-06-23T10:12:29.201Z,61.61
2018-06-23T10:13:29.126Z,61.51
2018-06-23T10:14:29.071Z,61.29
2018-06-23T10:15:29.036Z,61.80
2018-06-23T10:16:28.955Z,61.32
2018-06-23T10:17:28.899Z,61.19
2018-06-23T10:18:28.835Z,61.41
2018-06-23T10:19:28.782Z,61.41
2018-06-23T10:20:28.723Z,61.61
2018-06-23T10:21:28.717Z,60.74
2018-06-23T10:22:28.608Z,60.83
2018-06-23T10:23:28.558Z,60.74
2018-06-23T10:24:28.510Z,60.74
2018-06-23T10:25:28.425Z,60.57
2018-06-23T10:26:28.359Z,60.83
2018-06-23T10:27:28.337Z,60.77
2018-06-23T10:28:28.249Z,60.54
2018-06-23T10:29:28.201Z,60.47
2018-06-23T10:30:28.131Z,60.47
2018-06-23T10:31:28.074Z,61.15
2018-06-23T10:32:28.018Z,60.35
2018-06-23T10:33:27.961Z,60.64
2018-06-23T10:34:27.895Z,60.83
2018-06-23T10:35:27.839Z,60.08
2018-06-23T10:36:27.786Z,60.54
2018-06-23T10:37:27.726Z,60.35
2018-06-23T10:38:27.754Z,60.64
2018-06-23T10:39:27.602Z,60.67
2018-06-23T10:40:27.540Z,60.67
2018-06-23T10:41:27.489Z,60.67
2018-06-23T10:42:27.457Z,60.77
2018-06-23T10:43:27.371Z,61.32
2018-06-23T10:44:27.301Z,60.64
2018-06-23T10:45:27.240Z,61.25
2018-06-23T10:46:27.203Z,61.54
2018-06-23T10:47:27.122Z,60.86
2018-06-23T10:48:27.073Z,60.86
2018-06-23T10:49:27.027Z,60.77
2018-06-23T10:50:26.947Z,60.57
2018-06-23T10:51:26.909Z,60.57
2018-06-23T10:52:26.830Z,59.99
2018-06-23T10:53:26.777Z,60.67
2018-06-23T10:54:26.743Z,61.05
2018-06-23T10:55:26.661Z,60.77
2018-06-23T10:56:26.594Z,61.41
2018-06-23T10:57:26.549Z,61.71
2018-06-23T10:58:26.479Z,61.41
2018-06-23T10:59:26.434Z,61.54
2018-06-23T11:00:26.360Z,61.64
2018-06-23T11:01:26.301Z,62.32
2018-06-23T11:02:26.254Z,61.25
2018-06-23T11:03:26.184Z,61.05
2018-06-23T11:04:26.132Z,60.86
2018-06-23T11:05:26.069Z,61.54
2018-06-23T11:06:26.003Z,61.64
2018-06-23T11:07:25.946Z,61.44
2018-06-23T11:08:25.939Z,61.64
2018-06-23T11:09:25.835Z,62.03
2018-06-23T11:10:25.784Z,61.35
2018-06-23T11:11:25.718Z,61.15
2018-06-23T11:12:25.667Z,61.74
2018-06-23T11:13:25.607Z,61.67
2018-06-23T11:14:25.541Z,61.47
2018-06-23T11:15:25.475Z,61.38
2018-06-23T11:16:25.429Z,61.67
2018-06-23T11:17:25.363Z,60.41
2018-06-23T11:18:25.308Z,60.28
2018-06-23T11:19:25.247Z,60.18
2018-06-23T14:33:23.926Z,59.84
2018-06-23T14:34:23.765Z,56.23
2018-06-23T14:36:18.127Z,58.60
2018-06-23T14:37:17.971Z,57.63
2018-06-23T14:39:13.315Z,56.56
2018-06-23T14:40:13.208Z,55.19
2018-06-23T14:42:08.497Z,55.09
2018-06-23T14:43:08.420Z,54.80
2018-06-23T14:45:03.719Z,55.12
2018-06-23T14:46:03.621Z,53.95
2018-06-23T14:47:58.930Z,54.05
2018-06-23T14:48:58.812Z,53.75
2018-06-23T14:50:54.129Z,53.95
2018-06-23T14:51:54.023Z,53.17
2018-06-23T14:53:49.311Z,53.66
2018-06-23T14:54:49.217Z,53.66
2018-06-23T14:56:44.537Z,53.66
2018-06-23T14:57:44.428Z,53.66
2018-06-23T14:59:39.737Z,53.66
2018-06-23T15:00:39.669Z,53.07
2018-06-23T15:02:34.985Z,53.17
2018-06-23T15:03:34.873Z,52.29
2018-06-23T15:05:30.178Z,52.00
2018-06-23T15:06:30.089Z,52.12
2018-06-23T15:08:25.426Z,51.92
2018-06-23T15:09:25.326Z,51.04
2018-06-23T15:11:20.652Z,49.98
2018-06-23T15:12:20.534Z,49.22
2018-06-23T15:14:15.834Z,49.32
2018-06-23T15:15:15.743Z,49.32
2018-06-23T15:17:11.057Z,48.73
2018-06-23T15:18:10.953Z,49.12
2018-06-23T15:20:06.275Z,48.44
2018-06-23T15:21:06.179Z,49.02
2018-06-23T15:23:01.491Z,48.54
2018-06-23T15:24:01.415Z,49.22
2018-06-23T15:25:56.752Z,49.51
2018-06-23T15:26:56.636Z,49.32
2018-06-23T15:28:51.894Z,48.93
2018-06-23T15:29:51.849Z,48.83
2018-06-23T15:31:47.151Z,48.14
2018-06-23T15:32:47.046Z,48.54
2018-06-23T15:34:43.241Z,48.44
2018-06-23T15:35:43.133Z,48.93
2018-06-23T15:37:38.403Z,47.66
2018-06-23T15:38:38.327Z,47.66
2018-06-23T15:40:34.518Z,47.66
2018-06-23T15:41:34.349Z,47.56
2018-06-23T15:43:29.640Z,47.56
2018-06-23T15:44:29.560Z,47.46
2018-06-23T15:46:25.728Z,47.36
2018-06-23T15:47:25.600Z,47.66
2018-06-23T15:49:20.923Z,47.17
2018-06-23T15:50:20.813Z,47.66
2018-06-23T15:52:16.938Z,46.21
2018-06-23T15:53:16.864Z,45.62
2018-06-23T15:55:12.202Z,45.04
2018-06-23T15:56:12.095Z,45.04
2018-06-23T15:58:07.384Z,45.04
2018-06-23T15:59:07.301Z,45.43
2018-06-23T16:01:02.610Z,45.43
2018-06-23T16:02:02.500Z,46.01
2018-06-23T16:03:57.827Z,45.53
2018-06-23T16:04:57.723Z,45.31
2018-06-23T16:06:53.022Z,45.43
2018-06-23T16:07:52.947Z,45.61
2018-06-23T16:09:48.303Z,45.12
2018-06-23T16:10:48.158Z,45.21
2018-06-23T16:12:43.440Z,44.92
2018-06-23T16:13:43.370Z,45.12
2018-06-23T16:15:39.507Z,45.02
2018-06-23T16:16:39.386Z,45.51
2018-06-23T16:18:34.697Z,45.12
2018-06-23T16:19:34.605Z,45.12
2018-06-23T16:21:29.947Z,45.04
2018-06-23T16:22:29.826Z,45.14
2018-06-23T16:24:25.144Z,44.94
2018-06-23T16:25:25.063Z,44.82
2018-06-23T16:27:20.384Z,44.65
2018-06-23T16:28:20.292Z,44.45
2018-06-23T16:30:16.375Z,45.14
2018-06-23T16:31:16.307Z,44.65
2018-06-23T16:33:11.631Z,43.96
2018-06-23T16:34:11.510Z,43.77
2018-06-23T16:36:06.830Z,43.87
2018-06-23T16:37:06.752Z,43.48
2018-06-23T16:39:02.954Z,43.48
2018-06-23T16:40:02.859Z,43.67
2018-06-23T16:41:58.192Z,44.26
2018-06-23T16:42:58.088Z,44.74
2018-06-23T16:44:53.386Z,45.53
2018-06-23T16:45:53.287Z,45.92